createdAt,value
2023-04-28T00:00:21.779Z,12.23
2023-04-28T00:02:49.158Z,12.19
2023-04-28T00:05:16.669Z,12.16
2023-04-28T00:07:44.086Z,12.20
2023-04-28T00:10:11.715Z,12.19
2023-04-28T00:12:38.876Z,12.20
2023-04-28T00:15:06.697Z,12.27
2023-04-28T00:17:34.355Z,12.25
2023-04-28T00:20:01.520Z,12.12
2023-04-28T00:22:28.911Z,12.12
2023-04-28T00:24:56.097Z,12.14
2023-04-28T00:27:23.228Z,12.06
2023-04-28T00:29:50.391Z,12.06
2023-04-28T00:32:17.656Z,12.11
2023-04-28T00:34:44.850Z,12.13
2023-04-28T00:37:12.050Z,12.04
2023-04-28T00:39:39.276Z,12.03
2023-04-28T00:42:06.654Z,12.03
2023-04-28T00:44:33.792Z,11.96
2023-04-28T00:47:01.480Z,11.93
2023-04-28T00:49:29.796Z,11.95
2023-04-28T00:51:58.067Z,11.91
2023-04-28T00:54:25.985Z,11.94
2023-04-28T00:56:54.608Z,11.88
2023-04-28T00:59:21.732Z,11.84
2023-04-28T01:01:50.138Z,11.82
2023-04-28T01:04:21.311Z,11.80
2023-04-28T01:06:51.132Z,11.81
2023-04-28T01:09:18.321Z,11.79
2023-04-28T01:11:46.052Z,11.79
2023-04-28T01:14:34.006Z,11.72
2023-04-28T01:17:01.843Z,11.66
2023-04-28T01:19:29.698Z,11.62
2023-04-28T01:21:56.907Z,11.67
2023-04-28T01:24:25.791Z,11.73
2023-04-28T01:26:53.502Z,11.72
2023-04-28T01:29:22.844Z,11.63
2023-04-28T01:31:50.043Z,11.54
2023-04-28T01:34:18.194Z,11.49
2023-04-28T01:36:46.063Z,11.46
2023-04-28T01:39:13.794Z,11.45
2023-04-28T01:41:42.270Z,11.43
2023-04-28T01:44:09.717Z,11.36
2023-04-28T01:46:37.018Z,11.31
2023-04-28T01:49:04.764Z,11.30
2023-04-28T01:51:32.759Z,11.30
2023-04-28T01:53:59.941Z,11.26
2023-04-28T01:56:27.184Z,11.24
2023-04-28T01:58:56.510Z,11.27
2023-04-28T02:01:23.936Z,11.26
2023-04-28T02:03:51.458Z,11.24
2023-04-28T02:06:18.754Z,11.28
2023-04-28T02:08:45.916Z,11.22
2023-04-28T02:11:13.497Z,11.12
2023-04-28T02:13:41.574Z,11.11
2023-04-28T02:16:08.772Z,11.06
2023-04-28T02:18:36.315Z,11.07
2023-04-28T02:21:13.157Z,11.03
2023-04-28T02:23:40.685Z,11.00
2023-04-28T02:26:08.161Z,10.94
2023-04-28T02:28:35.356Z,10.86
2023-04-28T02:31:08.880Z,10.84
2023-04-28T02:33:37.682Z,10.82
2023-04-28T02:36:06.710Z,10.74
2023-04-28T02:38:34.591Z,10.70
2023-04-28T02:41:09.054Z,10.69
2023-04-28T02:43:37.746Z,10.61
2023-04-28T02:46:05.678Z,10.55
2023-04-28T02:48:35.488Z,10.45
2023-04-28T02:51:03.552Z,10.45
2023-04-28T02:53:31.341Z,10.41
2023-04-28T02:55:59.457Z,10.39
2023-04-28T02:58:29.821Z,10.35
2023-04-28T03:00:57.000Z,10.26
2023-04-28T03:03:24.261Z,10.31
2023-04-28T03:05:51.598Z,10.35
2023-04-28T03:08:20.773Z,10.43
2023-04-28T03:10:47.990Z,10.43
2023-04-28T03:13:15.190Z,10.48
2023-04-28T03:15:43.867Z,10.50
2023-04-28T03:18:11.207Z,10.46
2023-04-28T03:20:39.041Z,10.45
2023-04-28T03:23:06.220Z,10.39
2023-04-28T03:25:33.488Z,10.42
2023-04-28T03:28:01.307Z,10.43
2023-04-28T03:30:28.503Z,10.54
2023-04-28T03:32:57.980Z,10.57
2023-04-28T03:35:25.234Z,10.62
2023-04-28T03:37:52.524Z,10.60
2023-04-28T03:40:19.867Z,10.67
2023-04-28T03:43:04.966Z,10.78
2023-04-28T03:45:40.590Z,10.82
2023-04-28T03:48:09.168Z,10.89
2023-04-28T03:50:37.017Z,10.95
2023-04-28T03:53:05.060Z,10.94
2023-04-28T03:55:32.692Z,10.97
2023-04-28T03:57:59.830Z,10.87
2023-04-28T04:00:27.077Z,10.78
2023-04-28T04:02:56.700Z,10.80
2023-04-28T04:05:24.438Z,10.84
2023-04-28T04:07:51.677Z,10.84
2023-04-28T04:10:18.979Z,10.80
2023-04-28T04:12:46.303Z,10.83
2023-04-28T04:15:13.700Z,10.86
2023-04-28T04:17:43.233Z,10.84
2023-04-28T04:20:11.132Z,10.81
2023-04-28T04:22:38.403Z,10.76
2023-04-28T04:25:06.620Z,10.76
2023-04-28T04:27:35.413Z,10.72
2023-04-28T04:30:02.661Z,10.70
2023-04-28T04:32:29.853Z,10.72
2023-04-28T04:34:57.443Z,10.74
2023-04-28T04:37:25.134Z,10.78
2023-04-28T04:40:03.457Z,10.83
2023-04-28T04:42:36.145Z,10.78
2023-04-28T04:45:07.867Z,10.74
2023-04-28T04:47:36.214Z,10.72
2023-04-28T04:50:03.886Z,10.71
2023-04-28T04:52:31.172Z,10.69
2023-04-28T04:54:59.658Z,10.67
2023-04-28T04:57:27.246Z,10.64
2023-04-28T05:00:16.879Z,10.64
2023-04-28T05:02:44.273Z,10.66
2023-04-28T05:05:20.316Z,10.63
2023-04-28T05:07:53.041Z,10.67
2023-04-28T05:10:21.885Z,10.77
2023-04-28T05:12:49.410Z,10.85
2023-04-28T05:15:18.333Z,10.93
2023-04-28T05:17:59.525Z,11.05
2023-04-28T05:20:26.793Z,11.13
2023-04-28T05:22:55.701Z,11.17
2023-04-28T05:25:22.900Z,11.22
2023-04-28T05:27:50.085Z,11.29
2023-04-28T05:30:17.278Z,11.39
2023-04-28T05:32:44.803Z,11.46
2023-04-28T05:35:12.225Z,11.55
2023-04-28T05:37:40.009Z,11.66
2023-04-28T05:40:08.604Z,11.73
2023-04-28T05:42:36.059Z,11.76
2023-04-28T05:45:03.836Z,11.82
2023-04-28T05:47:31.827Z,11.89
2023-04-28T05:49:59.113Z,11.98
2023-04-28T05:52:26.459Z,12.04
2023-04-28T05:54:53.761Z,12.06
2023-04-28T05:57:21.465Z,12.07
2023-04-28T05:59:48.985Z,12.16
2023-04-28T06:02:16.717Z,12.29
2023-04-28T06:04:44.490Z,12.31
2023-04-28T06:07:12.093Z,12.33
2023-04-28T06:09:39.305Z,12.37
2023-04-28T06:12:07.457Z,12.44
2023-04-28T06:14:36.196Z,12.56
2023-04-28T06:17:04.702Z,12.70
2023-04-28T06:19:32.423Z,12.81
2023-04-28T06:21:59.664Z,12.90
2023-04-28T06:24:26.931Z,13.06
2023-04-28T06:26:56.249Z,13.14
2023-04-28T06:29:24.122Z,13.26
2023-04-28T06:31:52.767Z,13.33
2023-04-28T06:34:20.228Z,13.38
2023-04-28T06:36:47.462Z,13.38
2023-04-28T06:39:14.632Z,13.37
2023-04-28T06:41:41.792Z,13.52
2023-04-28T06:44:10.790Z,13.68
2023-04-28T06:46:39.413Z,13.66
2023-04-28T06:49:06.758Z,13.66
2023-04-28T06:51:34.459Z,13.89
2023-04-28T06:54:01.819Z,13.69
2023-04-28T06:56:29.437Z,13.52
2023-04-28T06:58:57.296Z,13.47
2023-04-28T07:01:25.390Z,13.35
2023-04-28T07:03:52.833Z,12.91
2023-04-28T07:06:20.434Z,12.90
2023-04-28T07:08:47.571Z,13.03
2023-04-28T07:11:15.709Z,13.14
2023-04-28T07:13:42.895Z,13.30
2023-04-28T07:16:11.220Z,13.32
2023-04-28T07:18:38.463Z,13.34
2023-04-28T07:21:06.379Z,13.36
2023-04-28T07:23:33.641Z,13.47
2023-04-28T07:26:00.775Z,13.55
2023-04-28T07:28:28.536Z,13.66
2023-04-28T07:30:55.878Z,13.64
2023-04-28T07:33:23.164Z,13.78
2023-04-28T07:35:52.597Z,13.85
2023-04-28T07:38:20.527Z,13.89
2023-04-28T07:40:48.528Z,14.13
2023-04-28T07:43:16.185Z,14.31
2023-04-28T07:45:45.890Z,14.28
2023-04-28T07:48:13.352Z,14.18
2023-04-28T07:50:40.639Z,14.51
2023-04-28T07:53:07.841Z,14.87
2023-04-28T07:55:35.220Z,15.20
2023-04-28T07:58:02.740Z,15.30
2023-04-28T08:00:30.016Z,14.90
2023-04-28T08:02:57.795Z,14.48
2023-04-28T08:05:25.527Z,14.91
2023-04-28T08:07:53.160Z,15.32
2023-04-28T08:10:21.005Z,15.75
2023-04-28T08:12:48.341Z,15.72
2023-04-28T08:15:16.684Z,16.08
2023-04-28T08:17:45.617Z,16.34
2023-04-28T08:20:15.255Z,16.34
2023-04-28T08:22:42.494Z,16.34
2023-04-28T08:25:10.767Z,16.71
2023-04-28T08:27:39.887Z,16.81
2023-04-28T08:30:10.005Z,16.80
2023-04-28T08:32:37.288Z,16.94
2023-04-28T08:35:04.921Z,16.33
2023-04-28T08:37:32.116Z,16.34
2023-04-28T08:40:02.344Z,16.86
2023-04-28T08:42:30.576Z,17.13
2023-04-28T08:44:59.798Z,17.23
2023-04-28T08:47:40.440Z,17.20
2023-04-28T08:50:09.214Z,17.40
2023-04-28T08:52:36.785Z,17.42
2023-04-28T08:55:17.076Z,16.86
2023-04-28T08:57:49.662Z,16.65
2023-04-28T09:00:17.308Z,16.01
2023-04-28T09:02:44.645Z,15.74
2023-04-28T09:05:14.365Z,16.44
2023-04-28T09:07:41.784Z,16.86
2023-04-28T09:10:25.730Z,17.14
2023-04-28T09:12:55.856Z,16.92
2023-04-28T09:15:41.405Z,17.14
2023-04-28T09:18:09.144Z,17.34
2023-04-28T09:20:37.288Z,17.32
2023-04-28T09:23:22.525Z,17.48
2023-04-28T09:26:07.947Z,16.96
2023-04-28T09:28:36.435Z,17.18
2023-04-28T09:31:04.556Z,17.34
2023-04-28T09:33:31.858Z,17.11
2023-04-28T09:35:59.197Z,17.32
2023-04-28T09:38:26.472Z,16.75
2023-04-28T09:41:01.735Z,17.28
2023-04-28T09:43:35.177Z,17.47
2023-04-28T09:46:05.692Z,17.45
2023-04-28T09:48:38.385Z,17.34
2023-04-28T09:51:08.301Z,17.03
2023-04-28T09:53:36.125Z,17.25
2023-04-28T09:56:08.032Z,17.62
2023-04-28T09:58:40.690Z,17.79
2023-04-28T10:01:11.673Z,17.26
2023-04-28T10:03:42.654Z,16.87
2023-04-28T10:06:10.149Z,17.03
2023-04-28T10:08:37.852Z,17.74
2023-04-28T10:11:05.854Z,17.59
2023-04-28T10:13:34.549Z,17.38
2023-04-28T10:16:03.192Z,17.60
2023-04-28T10:18:31.889Z,17.69
2023-04-28T10:21:03.774Z,18.06
2023-04-28T10:23:48.012Z,18.31
2023-04-28T10:26:21.903Z,18.43
2023-04-28T10:28:51.936Z,18.98
2023-04-28T10:31:22.636Z,19.21
2023-04-28T10:33:50.569Z,19.25
2023-04-28T10:36:52.935Z,18.58
2023-04-28T10:39:20.727Z,18.92
2023-04-28T10:41:49.115Z,19.45
2023-04-28T10:44:28.530Z,18.62
2023-04-28T10:47:09.604Z,18.43
2023-04-28T10:49:55.555Z,19.22
2023-04-28T10:52:40.755Z,19.75
2023-04-28T10:55:28.750Z,18.82
2023-04-28T10:58:16.289Z,18.87
2023-04-28T11:00:47.908Z,18.21
2023-04-28T11:04:07.536Z,19.37
2023-04-28T11:06:43.231Z,19.36
2023-04-28T11:09:14.009Z,19.55
2023-04-28T11:12:01.198Z,21.99
2023-04-28T11:14:37.645Z,24.13
2023-04-28T11:17:13.334Z,25.35
2023-04-28T11:19:48.386Z,26.29
2023-04-28T11:22:16.531Z,25.15
2023-04-28T11:25:00.306Z,25.54
2023-04-28T11:27:31.313Z,23.89
2023-04-28T11:29:59.263Z,25.47
2023-04-28T11:32:29.524Z,25.58
2023-04-28T11:34:57.214Z,25.95
2023-04-28T11:37:24.844Z,27.42
2023-04-28T11:39:52.556Z,27.94
2023-04-28T11:42:19.925Z,25.72
2023-04-28T11:44:52.967Z,26.64
2023-04-28T11:47:34.688Z,28.21
2023-04-28T11:50:03.571Z,27.51
2023-04-28T11:52:31.394Z,28.00
2023-04-28T11:55:03.064Z,26.67
2023-04-28T11:57:30.227Z,23.73
2023-04-28T12:00:40.045Z,22.03
2023-04-28T12:03:10.787Z,22.70
2023-04-28T12:05:45.443Z,22.35
2023-04-28T12:08:12.717Z,22.18
2023-04-28T12:10:39.918Z,22.59
2023-04-28T12:13:17.119Z,22.73
2023-04-28T12:15:44.356Z,22.54
2023-04-28T12:18:12.631Z,21.37
2023-04-28T12:20:40.067Z,21.61
2023-04-28T12:23:08.568Z,22.26
2023-04-28T12:25:47.970Z,21.93
2023-04-28T12:28:15.252Z,21.47
2023-04-28T12:30:43.445Z,21.75
2023-04-28T12:33:28.960Z,22.28
2023-04-28T12:35:59.747Z,22.69
2023-04-28T12:38:28.325Z,22.90
2023-04-28T12:40:56.404Z,22.26
2023-04-28T12:43:24.800Z,21.36
2023-04-28T12:45:54.386Z,22.54
2023-04-28T12:48:23.994Z,21.39
2023-04-28T12:50:51.889Z,20.94
2023-04-28T12:53:19.036Z,21.60
2023-04-28T12:55:46.255Z,21.57
2023-04-28T12:58:13.396Z,21.78
2023-04-28T13:00:41.807Z,22.64
2023-04-28T13:03:09.214Z,22.85
2023-04-28T13:05:36.521Z,22.92
2023-04-28T13:08:04.823Z,21.97
2023-04-28T13:10:32.053Z,23.17
2023-04-28T13:12:59.223Z,21.58
2023-04-28T13:15:27.166Z,21.46
2023-04-28T13:17:54.474Z,22.88
2023-04-28T13:20:21.936Z,24.11
2023-04-28T13:22:49.057Z,24.24
2023-04-28T13:25:16.432Z,22.73
2023-04-28T13:27:43.658Z,22.27
2023-04-28T13:30:12.419Z,24.40
2023-04-28T13:32:39.785Z,24.87
2023-04-28T13:35:08.991Z,23.34
2023-04-28T13:37:39.008Z,25.57
2023-04-28T13:40:07.666Z,23.56
2023-04-28T13:42:34.849Z,21.31
2023-04-28T13:45:02.122Z,23.34
2023-04-28T13:47:32.511Z,23.99
2023-04-28T13:50:00.262Z,25.05
2023-04-28T13:52:27.409Z,28.21
2023-04-28T13:54:54.627Z,27.10
2023-04-28T13:57:21.882Z,30.11
2023-04-28T13:59:49.073Z,30.53
2023-04-28T14:02:16.383Z,30.31
2023-04-28T14:04:48.630Z,26.16
2023-04-28T14:07:16.837Z,26.03
2023-04-28T14:09:44.196Z,25.55
2023-04-28T14:12:12.266Z,29.61
2023-04-28T14:14:40.464Z,26.98
2023-04-28T14:17:07.956Z,24.58
2023-04-28T14:19:35.256Z,27.59
2023-04-28T14:22:02.621Z,29.09
2023-04-28T14:24:29.943Z,30.84
2023-04-28T14:26:57.827Z,29.04
2023-04-28T14:29:24.902Z,24.87
2023-04-28T14:31:52.150Z,24.46
2023-04-28T14:34:19.309Z,25.91
2023-04-28T14:36:47.867Z,28.40
2023-04-28T14:39:15.152Z,25.98
2023-04-28T14:41:42.325Z,23.74
2023-04-28T14:44:09.690Z,26.23
2023-04-28T14:46:37.145Z,26.76
2023-04-28T14:49:05.952Z,27.23
2023-04-28T14:51:33.230Z,26.02
2023-04-28T14:54:00.731Z,26.11
2023-04-28T14:56:27.962Z,30.04
2023-04-28T14:58:55.150Z,27.71
2023-04-28T15:01:22.513Z,27.88
2023-04-28T15:03:49.801Z,29.38
2023-04-28T15:06:17.054Z,28.55
2023-04-28T15:08:44.215Z,26.71
2023-04-28T15:11:11.778Z,28.83
2023-04-28T15:13:40.447Z,26.94
2023-04-28T15:16:10.056Z,29.04
2023-04-28T15:18:37.479Z,27.34
2023-04-28T15:21:04.933Z,26.98
2023-04-28T15:23:32.164Z,23.46
2023-04-28T15:25:59.710Z,26.26
2023-04-28T15:28:28.063Z,27.92
2023-04-28T15:30:55.324Z,26.75
2023-04-28T15:33:22.859Z,27.40
2023-04-28T15:35:50.240Z,28.88
2023-04-28T15:38:18.092Z,26.96
2023-04-28T15:40:45.897Z,26.92
2023-04-28T15:43:13.674Z,24.76
2023-04-28T15:45:41.046Z,26.54
2023-04-28T15:48:10.106Z,25.78
2023-04-28T15:50:37.626Z,25.69
2023-04-28T15:53:05.032Z,24.91
2023-04-28T15:55:32.373Z,24.54
2023-04-28T15:58:00.850Z,25.45
2023-04-28T16:00:28.283Z,22.79
2023-04-28T16:02:55.568Z,23.00
2023-04-28T16:05:22.956Z,22.84
2023-04-28T16:07:50.351Z,25.35
2023-04-28T16:10:17.936Z,25.75
2023-04-28T16:12:45.845Z,26.70
2023-04-28T16:15:13.994Z,27.89
2023-04-28T16:17:42.208Z,26.17
2023-04-28T16:20:11.548Z,28.64
2023-04-28T16:22:41.012Z,28.03
2023-04-28T16:25:10.450Z,27.90
2023-04-28T16:27:38.994Z,28.13
2023-04-28T16:30:07.634Z,28.26
2023-04-28T16:32:38.332Z,28.72
2023-04-28T16:35:06.607Z,28.90
2023-04-28T16:37:36.277Z,28.56
2023-04-28T16:40:03.647Z,28.11
2023-04-28T16:42:31.150Z,26.91
2023-04-28T16:44:59.675Z,27.02
2023-04-28T16:47:27.088Z,25.64
2023-04-28T16:49:54.492Z,27.09
2023-04-28T16:52:21.654Z,25.67
2023-04-28T16:54:48.998Z,27.27
2023-04-28T16:57:16.143Z,26.76
2023-04-28T16:59:43.282Z,26.04
2023-04-28T17:02:10.564Z,26.82
2023-04-28T17:04:38.424Z,27.37
2023-04-28T17:07:06.053Z,27.07
2023-04-28T17:09:34.144Z,27.54
2023-04-28T17:12:01.352Z,27.66
2023-04-28T17:14:29.579Z,27.75
2023-04-28T17:16:56.754Z,27.36
2023-04-28T17:19:23.967Z,26.75
2023-04-28T17:21:52.715Z,26.01
2023-04-28T17:24:20.051Z,25.43
2023-04-28T17:26:47.305Z,25.02
2023-04-28T17:29:14.483Z,24.63
2023-04-28T17:31:41.914Z,24.54
2023-04-28T17:34:09.129Z,24.34
2023-04-28T17:36:36.453Z,23.98
2023-04-28T17:39:04.534Z,23.53
2023-04-28T17:41:32.106Z,23.29
2023-04-28T17:43:59.393Z,23.14
2023-04-28T17:46:27.364Z,23.00
2023-04-28T17:48:54.434Z,22.97
2023-04-28T17:51:21.646Z,22.77
2023-04-28T17:53:48.963Z,22.65
2023-04-28T17:56:16.596Z,22.47
2023-04-28T17:58:43.841Z,22.25
2023-04-28T18:01:11.514Z,22.07
2023-04-28T18:03:39.819Z,22.02
2023-04-28T18:06:07.879Z,21.87
2023-04-28T18:08:36.608Z,21.72
2023-04-28T18:11:09.010Z,21.24
2023-04-28T18:13:36.364Z,20.69
2023-04-28T18:16:05.156Z,21.05
2023-04-28T18:18:35.299Z,21.03
2023-04-28T18:21:03.058Z,20.97
2023-04-28T18:23:30.477Z,19.74
2023-04-28T18:25:57.795Z,19.71
2023-04-28T18:28:25.033Z,20.05
2023-04-28T18:30:52.260Z,19.70
2023-04-28T18:33:22.169Z,19.66
2023-04-28T18:36:06.158Z,20.08
2023-04-28T18:38:36.081Z,19.68
2023-04-28T18:41:17.107Z,19.16
2023-04-28T18:43:44.655Z,18.70
2023-04-28T18:46:13.916Z,19.07
2023-04-28T18:48:41.232Z,18.84
2023-04-28T18:51:08.528Z,19.19
2023-04-28T18:53:36.927Z,19.00
2023-04-28T18:56:04.772Z,18.70
2023-04-28T18:58:36.975Z,18.75
2023-04-28T19:01:04.782Z,18.80
2023-04-28T19:03:32.394Z,18.85
2023-04-28T19:05:59.732Z,18.62
2023-04-28T19:08:29.844Z,18.77
2023-04-28T19:11:00.108Z,18.79
2023-04-28T19:13:27.368Z,18.43
2023-04-28T19:15:56.109Z,18.31
2023-04-28T19:18:23.473Z,18.43
2023-04-28T19:20:52.091Z,18.34
2023-04-28T19:23:19.270Z,18.43
2023-04-28T19:25:46.667Z,18.37
2023-04-28T19:28:13.803Z,18.25
2023-04-28T19:30:40.998Z,18.26
2023-04-28T19:33:08.228Z,18.46
2023-04-28T19:35:35.406Z,18.26
2023-04-28T19:38:02.646Z,18.03
2023-04-28T19:40:30.398Z,18.34
2023-04-28T19:42:57.549Z,18.18
2023-04-28T19:45:24.872Z,17.80
2023-04-28T19:47:52.910Z,17.52
2023-04-28T19:50:20.087Z,17.52
2023-04-28T19:52:47.514Z,17.27
2023-04-28T19:55:18.412Z,17.50
2023-04-28T19:57:45.977Z,17.52
2023-04-28T20:00:13.901Z,17.71
2023-04-28T20:02:42.759Z,17.64
2023-04-28T20:05:10.148Z,17.33
2023-04-28T20:07:42.503Z,17.33
2023-04-28T20:10:10.340Z,17.48
2023-04-28T20:12:37.509Z,17.24
2023-04-28T20:15:06.136Z,17.38
2023-04-28T20:17:33.350Z,17.41
2023-04-28T20:20:00.764Z,17.29
2023-04-28T20:22:27.898Z,17.32
2023-04-28T20:24:56.275Z,17.37
2023-04-28T20:27:23.387Z,17.36
2023-04-28T20:29:50.712Z,17.36
2023-04-28T20:32:18.128Z,17.33
2023-04-28T20:34:45.496Z,16.93
2023-04-28T20:37:13.471Z,16.76
2023-04-28T20:39:40.656Z,16.76
2023-04-28T20:42:07.818Z,16.89
2023-04-28T20:44:35.702Z,16.91
2023-04-28T20:47:03.520Z,16.68
2023-04-28T20:49:31.042Z,16.53
2023-04-28T20:52:07.315Z,16.46
2023-04-28T20:54:38.491Z,16.60
2023-04-28T20:57:05.823Z,16.45
2023-04-28T20:59:33.113Z,16.40
2023-04-28T21:02:00.962Z,16.28
2023-04-28T21:04:28.452Z,16.24
2023-04-28T21:06:55.945Z,16.14
2023-04-28T21:09:26.630Z,16.07
2023-04-28T21:11:55.004Z,16.15
2023-04-28T21:14:22.217Z,16.08
2023-04-28T21:16:49.779Z,16.10
2023-04-28T21:19:17.289Z,15.99
2023-04-28T21:21:44.798Z,15.95
2023-04-28T21:24:12.567Z,15.90
2023-04-28T21:26:40.660Z,15.82
2023-04-28T21:29:09.256Z,15.77
2023-04-28T21:31:36.523Z,15.70
2023-04-28T21:34:03.943Z,15.63
2023-04-28T21:36:31.287Z,15.56
2023-04-28T21:38:58.689Z,15.67
2023-04-28T21:41:26.124Z,15.69
2023-04-28T21:43:53.305Z,15.82
2023-04-28T21:46:20.657Z,15.77
2023-04-28T21:48:47.975Z,15.82
2023-04-28T21:51:15.103Z,15.69
2023-04-28T21:53:42.571Z,15.64
2023-04-28T21:56:09.752Z,15.76
2023-04-28T21:58:37.182Z,15.75
2023-04-28T22:01:05.285Z,15.75
2023-04-28T22:03:35.315Z,15.70
2023-04-28T22:06:03.282Z,15.75
2023-04-28T22:08:31.685Z,15.78
2023-04-28T22:10:58.948Z,15.84
2023-04-28T22:13:26.274Z,15.84
2023-04-28T22:15:53.492Z,15.80
2023-04-28T22:18:20.626Z,15.88
2023-04-28T22:20:49.975Z,15.80
2023-04-28T22:23:17.266Z,15.77
2023-04-28T22:25:45.056Z,15.71
2023-04-28T22:28:12.231Z,15.72
2023-04-28T22:30:39.695Z,15.71
2023-04-28T22:33:06.935Z,15.77
2023-04-28T22:35:34.067Z,15.71
2023-04-28T22:38:01.363Z,15.94
2023-04-28T22:40:28.567Z,15.85
2023-04-28T22:42:55.717Z,15.94
2023-04-28T22:45:22.948Z,15.78
2023-04-28T22:47:50.111Z,15.71
2023-04-28T22:50:17.300Z,15.65
2023-04-28T22:52:44.451Z,15.61
2023-04-28T22:55:12.641Z,15.56
2023-04-28T22:57:40.686Z,15.56
2023-04-28T23:00:09.277Z,15.56
2023-04-28T23:02:36.802Z,15.50
2023-04-28T23:05:04.736Z,15.51
2023-04-28T23:07:31.945Z,15.56
2023-04-28T23:09:59.176Z,15.55
2023-04-28T23:12:26.667Z,15.55
2023-04-28T23:14:54.498Z,15.56
2023-04-28T23:17:21.774Z,15.56
2023-04-28T23:19:49.168Z,15.57
2023-04-28T23:22:16.477Z,15.53
2023-04-28T23:24:43.931Z,15.64
2023-04-28T23:27:11.215Z,15.56
2023-04-28T23:29:38.474Z,15.52
2023-04-28T23:32:06.106Z,15.57
2023-04-28T23:34:33.285Z,15.75
2023-04-28T23:37:01.073Z,15.75
2023-04-28T23:39:30.088Z,15.64
2023-04-28T23:41:58.555Z,15.71
2023-04-28T23:44:25.843Z,15.59
2023-04-28T23:46:54.740Z,15.56
2023-04-28T23:49:23.747Z,15.55
2023-04-28T23:51:50.990Z,15.56
2023-04-28T23:54:18.144Z,15.47
2023-04-28T23:56:45.344Z,15.43
2023-04-28T23:59:12.500Z,15.47
